Time,TemperatureF,DewpointF,PressureIn,WindDirection,WindDirectionDegrees,WindSpeedMPH,WindSpeedGustMPH,Humidity,HourlyPrecipIn,Conditions,Clouds,dailyrainin,SoftwareType,DateUTC
2013-11-25 00:08:00,21.7,16.0,30.53,NNE,18,0.0,0.0,79,0.00,,,0.00,weatherlink.com 1.10,2013-11-25 05:08:00,
2013-11-25 00:24:00,21.6,16.0,30.53,NNE,18,0.0,0.0,80,0.00,,,0.00,weatherlink.com 1.10,2013-11-25 05:24:00,
2013-11-25 00:39:00,21.5,17.0,30.53,NNE,18,0.0,0.0,82,0.00,,,0.00,weatherlink.com 1.10,2013-11-25 05:39:00,
2013-11-25 00:54:00,21.2,16.0,30.54,NNE,18,0.0,0.0,81,0.00,,,0.00,weatherlink.com 1.10,2013-11-25 05:54:00,
2013-11-25 01:09:00,21.6,15.0,30.54,NNE,18,0.0,0.0,75,0.00,,,0.00,weatherlink.com 1.10,2013-11-25 06:09:00,
2013-11-25 01:24:00,20.9,16.0,30.54,NNE,18,0.0,0.0,80,0.00,,,0.00,weatherlink.com 1.10,2013-11-25 06:24:00,
2013-11-25 01:39:00,20.5,14.0,30.53,NNE,18,0.0,0.0,77,0.00,,,0.00,weatherlink.com 1.10,2013-11-25 06:39:00,
2013-11-25 01:54:00,20.3,15.0,30.53,NNE,18,0.0,0.0,81,0.00,,,0.00,weatherlink.com 1.10,2013-11-25 06:54:00,
2013-11-25 02:09:00,19.9,16.0,30.54,NNE,18,0.0,0.0,83,0.00,,,0.00,weatherlink.com 1.10,2013-11-25 07:09:00,
2013-11-25 02:24:00,19.5,15.0,30.54,NNE,18,0.0,0.0,81,0.00,,,0.00,weatherlink.com 1.10,2013-11-25 07:24:00,
2013-11-25 02:39:00,19.2,15.0,30.54,NNE,18,0.0,0.0,85,0.00,,,0.00,weatherlink.com 1.10,2013-11-25 07:39:00,
2013-11-25 02:54:00,19.0,15.0,30.54,NNE,18,0.0,0.0,83,0.00,,,0.00,weatherlink.com 1.10,2013-11-25 07:54:00,
2013-11-25 03:09:00,19.0,15.0,30.54,NNE,18,0.0,0.0,84,0.00,,,0.00,weatherlink.com 1.10,2013-11-25 08:09:00,
2013-11-25 03:24:00,19.0,15.0,30.54,NNE,18,0.0,0.0,84,0.00,,,0.00,weatherlink.com 1.10,2013-11-25 08:24:00,
2013-11-25 03:39:00,19.5,15.0,30.54,NNE,18,0.0,0.0,82,0.00,,,0.00,weatherlink.com 1.10,2013-11-25 08:39:00,
2013-11-25 03:54:00,19.3,15.0,30.54,NNE,18,0.0,0.0,83,0.00,,,0.00,weatherlink.com 1.10,2013-11-25 08:54:00,
2013-11-25 04:09:00,18.8,15.0,30.54,NNE,18,0.0,0.0,84,0.00,,,0.00,weatherlink.com 1.10,2013-11-25 09:09:00,
2013-11-25 04:24:00,18.7,15.0,30.54,NNE,18,0.0,0.0,84,0.00,,,0.00,weatherlink.com 1.10,2013-11-25 09:24:00,
2013-11-25 04:39:00,18.6,15.0,30.54,NNE,18,0.0,0.0,85,0.00,,,0.00,weatherlink.com 1.10,2013-11-25 09:39:00,
2013-11-25 04:54:00,18.2,15.0,30.55,NNE,18,0.0,0.0,87,0.00,,,0.00,weatherlink.com 1.10,2013-11-25 09:54:00,
2013-11-25 05:09:00,17.9,15.0,30.55,NNE,18,0.0,0.0,88,0.00,,,0.00,weatherlink.com 1.10,2013-11-25 10:09:00,
2013-11-25 05:24:00,17.7,15.0,30.56,NNE,18,0.0,0.0,89,0.00,,,0.00,weatherlink.com 1.10,2013-11-25 10:24:00,
2013-11-25 05:39:00,17.8,15.0,30.55,NNE,18,0.0,0.0,89,0.00,,,0.00,weatherlink.com 1.10,2013-11-25 10:39:00,
2013-11-25 05:54:00,18.5,16.0,30.55,NNE,18,0.0,0.0,88,0.00,,,0.00,weatherlink.com 1.10,2013-11-25 10:54:00,
2013-11-25 06:09:00,19.0,16.0,30.55,NNE,18,0.0,0.0,88,0.00,,,0.00,weatherlink.com 1.10,2013-11-25 11:09:00,
2013-11-25 06:24:00,19.2,16.0,30.55,NNE,18,0.0,0.0,87,0.00,,,0.00,weatherlink.com 1.10,2013-11-25 11:24:00,
2013-11-25 06:39:00,19.1,16.0,30.55,NNE,18,0.0,0.0,87,0.00,,,0.00,weatherlink.com 1.10,2013-11-25 11:39:00,
2013-11-25 06:54:00,-999.0,-99.9,30.55,North,-999,-999.0,-999.0,-999,0.00,,,0.00,weatherlink.com 1.10,2013-11-25 11:54:00,
2013-11-25 07:09:00,-999.0,-99.9,30.55,North,-999,-999.0,-999.0,-999,0.00,,,0.00,weatherlink.com 1.10,2013-11-25 12:09:00,
2013-11-25 07:24:00,-999.0,-99.9,30.56,North,-999,-999.0,-999.0,-999,0.00,,,0.00,weatherlink.com 1.10,2013-11-25 12:24:00,
2013-11-25 07:39:00,-999.0,-99.9,30.56,North,-999,-999.0,-999.0,-999,0.00,,,0.00,weatherlink.com 1.10,2013-11-25 12:39:00,
2013-11-25 07:54:00,19.7,17.0,30.56,NNE,18,0.0,0.0,87,0.00,,,0.00,weatherlink.com 1.10,2013-11-25 12:54:00,
2013-11-25 08:09:00,22.1,19.0,30.56,NNE,18,0.0,0.0,86,0.00,,,0.00,weatherlink.com 1.10,2013-11-25 13:09:00,
2013-11-25 08:24:00,24.6,19.0,30.55,NNE,18,0.0,0.0,80,0.00,,,0.00,weatherlink.com 1.10,2013-11-25 13:24:00,
2013-11-25 08:39:00,25.8,19.0,30.57,NNE,18,0.0,0.0,75,0.00,,,0.00,weatherlink.com 1.10,2013-11-25 13:39:00,
2013-11-25 08:54:00,27.2,18.0,30.57,NNE,18,0.0,0.0,69,0.00,,,0.00,weatherlink.com 1.10,2013-11-25 13:54:00,
2013-11-25 09:10:00,29.5,12.0,30.57,East,79,0.0,0.0,49,0.00,,,0.00,weatherlink.com 1.10,2013-11-25 14:10:00,
2013-11-25 09:25:00,30.6,10.0,30.57,SSE,160,0.0,0.0,43,0.00,,,0.00,weatherlink.com 1.10,2013-11-25 14:25:00,
2013-11-25 09:40:00,31.5,11.0,30.56,SSW,195,0.0,0.0,42,0.00,,,0.00,weatherlink.com 1.10,2013-11-25 14:40:00,
2013-11-25 09:55:00,31.2,10.0,30.56,East,80,0.0,0.0,42,0.00,,,0.00,weatherlink.com 1.10,2013-11-25 14:55:00,
2013-11-25 10:10:00,31.6,10.0,30.56,SSW,198,0.0,0.0,40,0.00,,,0.00,weatherlink.com 1.10,2013-11-25 15:10:00,
2013-11-25 10:25:00,32.0,9.0,30.56,NNW,336,0.0,0.0,39,0.00,,,0.00,weatherlink.com 1.10,2013-11-25 15:25:00,
2013-11-25 10:40:00,32.4,9.0,30.55,SE,124,0.0,0.0,37,0.00,,,0.00,weatherlink.com 1.10,2013-11-25 15:40:00,
2013-11-25 10:55:00,32.5,8.0,30.54,SE,143,0.0,0.0,36,0.00,,,0.00,weatherlink.com 1.10,2013-11-25 15:55:00,
2013-11-25 11:10:00,34.2,10.0,30.54,NE,36,0.0,0.0,37,0.00,,,0.00,weatherlink.com 1.10,2013-11-25 16:10:00,
2013-11-25 11:25:00,34.2,8.0,30.53,NNW,336,0.0,0.0,34,0.00,,,0.00,weatherlink.com 1.10,2013-11-25 16:25:00,
2013-11-25 11:40:00,34.6,8.0,30.51,WNW,293,0.0,0.0,33,0.00,,,0.00,weatherlink.com 1.10,2013-11-25 16:40:00,
2013-11-25 11:55:00,35.4,11.0,30.50,NNE,18,0.0,0.0,36,0.00,,,0.00,weatherlink.com 1.10,2013-11-25 16:55:00,
2013-11-25 12:10:00,35.2,9.0,30.50,WNW,292,0.0,0.0,33,0.00,,,0.00,weatherlink.com 1.10,2013-11-25 17:10:00,
2013-11-25 12:25:00,34.9,8.0,30.50,SSW,200,0.0,0.0,33,0.00,,,0.00,weatherlink.com 1.10,2013-11-25 17:25:00,
2013-11-25 12:40:00,35.6,10.0,30.48,SSE,148,0.0,0.0,34,0.00,,,0.00,weatherlink.com 1.10,2013-11-25 17:40:00,
2013-11-25 12:55:00,35.7,9.0,30.47,West,277,0.0,0.0,33,0.00,,,0.00,weatherlink.com 1.10,2013-11-25 17:55:00,
2013-11-25 13:10:00,36.1,10.0,30.45,WNW,297,0.0,0.0,34,0.00,,,0.00,weatherlink.com 1.10,2013-11-25 18:10:00,
2013-11-25 13:25:00,37.5,9.0,30.45,South,177,0.0,0.0,31,0.00,,,0.00,weatherlink.com 1.10,2013-11-25 18:25:00,
2013-11-25 13:40:00,37.8,9.0,30.46,SSE,161,0.0,0.0,30,0.00,,,0.00,weatherlink.com 1.10,2013-11-25 18:40:00,
2013-11-25 13:55:00,37.2,10.0,30.45,NNE,30,0.0,0.0,33,0.00,,,0.00,weatherlink.com 1.10,2013-11-25 18:55:00,
2013-11-25 14:10:00,38.4,11.0,30.44,NNW,331,0.0,0.0,32,0.00,,,0.00,weatherlink.com 1.10,2013-11-25 19:10:00,
2013-11-25 14:25:00,39.8,10.0,30.44,NNE,21,0.0,0.0,29,0.00,,,0.00,weatherlink.com 1.10,2013-11-25 19:25:00,
2013-11-25 14:40:00,39.2,9.0,30.44,SSE,148,0.0,0.0,29,0.00,,,0.00,weatherlink.com 1.10,2013-11-25 19:40:00,
2013-11-25 14:55:00,39.2,11.0,30.43,NE,47,0.0,0.0,31,0.00,,,0.00,weatherlink.com 1.10,2013-11-25 19:55:00,
2013-11-25 15:10:00,39.4,12.0,30.43,East,82,0.0,0.0,32,0.00,,,0.00,weatherlink.com 1.10,2013-11-25 20:10:00,
2013-11-25 15:25:00,38.9,11.0,30.42,East,98,0.0,0.0,32,0.00,,,0.00,weatherlink.com 1.10,2013-11-25 20:25:00,
2013-11-25 15:40:00,38.5,12.0,30.43,SE,142,0.0,0.0,33,0.00,,,0.00,weatherlink.com 1.10,2013-11-25 20:40:00,
2013-11-25 15:55:00,38.3,11.0,30.43,ENE,72,0.0,0.0,32,0.00,,,0.00,weatherlink.com 1.10,2013-11-25 20:55:00,
2013-11-25 16:10:00,38.2,11.0,30.43,SE,127,0.0,0.0,32,0.00,,,0.00,weatherlink.com 1.10,2013-11-25 21:10:00,
2013-11-25 16:25:00,38.1,11.0,30.43,SE,127,0.0,0.0,33,0.00,,,0.00,weatherlink.com 1.10,2013-11-25 21:25:00,
2013-11-25 16:40:00,37.9,12.0,30.42,SE,127,0.0,0.0,34,0.00,,,0.00,weatherlink.com 1.10,2013-11-25 21:40:00,
2013-11-25 16:55:00,37.8,11.0,30.42,East,87,0.0,0.0,33,0.00,,,0.00,weatherlink.com 1.10,2013-11-25 21:55:00,
2013-11-25 17:10:00,37.6,11.0,30.41,East,90,0.0,0.0,34,0.00,,,0.00,weatherlink.com 1.10,2013-11-25 22:10:00,
2013-11-25 17:25:00,37.5,11.0,30.42,East,90,0.0,0.0,34,0.00,,,0.00,weatherlink.com 1.10,2013-11-25 22:25:00,
2013-11-25 17:40:00,37.5,12.0,30.43,East,90,0.0,0.0,35,0.00,,,0.00,weatherlink.com 1.10,2013-11-25 22:40:00,
2013-11-25 17:55:00,37.4,13.0,30.43,East,90,0.0,0.0,36,0.00,,,0.00,weatherlink.com 1.10,2013-11-25 22:55:00,
2013-11-25 18:10:00,37.4,13.0,30.43,East,90,0.0,0.0,36,0.00,,,0.00,weatherlink.com 1.10,2013-11-25 23:10:00,
2013-11-25 18:25:00,37.4,13.0,30.44,East,90,0.0,0.0,36,0.00,,,0.00,weatherlink.com 1.10,2013-11-25 23:25:00,
2013-11-25 18:40:00,37.5,16.0,30.43,East,90,0.0,0.0,41,0.00,,,0.00,weatherlink.com 1.10,2013-11-25 23:40:00,
2013-11-25 18:55:00,37.3,14.0,30.43,East,90,0.0,0.0,38,0.00,,,0.00,weatherlink.com 1.10,2013-11-25 23:55:00,
2013-11-25 19:10:00,37.4,14.0,30.43,East,90,0.0,0.0,38,0.00,,,0.00,weatherlink.com 1.10,2013-11-26 00:10:00,
2013-11-25 19:25:00,37.4,14.0,30.43,East,90,0.0,0.0,38,0.00,,,0.00,weatherlink.com 1.10,2013-11-26 00:25:00,
2013-11-25 19:40:00,37.3,17.0,30.43,East,90,0.0,0.0,43,0.00,,,0.00,weatherlink.com 1.10,2013-11-26 00:40:00,
2013-11-25 19:55:00,37.0,17.0,30.43,East,90,0.0,0.0,44,0.00,,,0.00,weatherlink.com 1.10,2013-11-26 00:55:00,
2013-11-25 20:11:00,36.9,19.0,30.42,East,90,0.0,0.0,48,0.00,,,0.00,weatherlink.com 1.10,2013-11-26 01:11:00,
2013-11-25 20:26:00,36.8,17.0,30.41,NNE,31,0.0,0.0,44,0.00,,,0.00,weatherlink.com 1.10,2013-11-26 01:26:00,
2013-11-25 20:41:00,36.9,17.0,30.41,NNE,31,0.0,0.0,44,0.00,,,0.00,weatherlink.com 1.10,2013-11-26 01:41:00,
2013-11-25 20:56:00,36.8,17.0,30.40,NNE,31,0.0,0.0,44,0.00,,,0.00,weatherlink.com 1.10,2013-11-26 01:56:00,
2013-11-25 21:11:00,36.6,16.0,30.40,NNE,31,0.0,0.0,44,0.00,,,0.00,weatherlink.com 1.10,2013-11-26 02:11:00,
2013-11-25 21:26:00,36.6,17.0,30.41,NNE,31,0.0,0.0,45,0.00,,,0.00,weatherlink.com 1.10,2013-11-26 02:26:00,
2013-11-25 21:41:00,36.6,17.0,30.41,NNE,31,0.0,0.0,45,0.00,,,0.00,weatherlink.com 1.10,2013-11-26 02:41:00,
2013-11-25 21:56:00,36.5,17.0,30.41,NNE,31,0.0,0.0,45,0.00,,,0.00,weatherlink.com 1.10,2013-11-26 02:56:00,
2013-11-25 22:11:00,36.3,18.0,30.40,NNW,345,0.0,0.0,48,0.00,,,0.00,weatherlink.com 1.10,2013-11-26 03:11:00,
2013-11-25 22:26:00,35.9,19.0,30.40,North,9,0.0,0.0,50,0.00,,,0.00,weatherlink.com 1.10,2013-11-26 03:26:00,
2013-11-25 22:41:00,35.7,19.0,30.39,North,11,0.0,0.0,50,0.00,,,0.00,weatherlink.com 1.10,2013-11-26 03:41:00,
2013-11-25 22:56:00,35.6,19.0,30.38,North,11,0.0,0.0,51,0.00,,,0.00,weatherlink.com 1.10,2013-11-26 03:56:00,
2013-11-25 23:11:00,35.5,18.0,30.37,NNE,32,0.0,0.0,49,0.00,,,0.00,weatherlink.com 1.10,2013-11-26 04:11:00,
2013-11-25 23:26:00,35.4,19.0,30.37,NNE,32,0.0,0.0,51,0.00,,,0.00,weatherlink.com 1.10,2013-11-26 04:26:00,
2013-11-25 23:41:00,35.3,19.0,30.35,NNE,32,0.0,0.0,52,0.00,,,0.00,weatherlink.com 1.10,2013-11-26 04:41:00,
2013-11-25 23:56:00,35.2,19.0,30.35,NNE,32,0.0,0.0,53,0.00,,,0.00,weatherlink.com 1.10,2013-11-26 04:56:00,